Tonopah, NV (89049)

18:22 PST le 02 décembre 2016 (GMT -0800)
Tonopah | | Change Station

Alt. 5427 ft 38.05 °N, 117.09 °W | Updated 26 minutes ago

Clear
Ciel dégagé
28 ° F
Paraît 17 ° F
N
14
Vent Variable Vent de Nord

Aujourd'hui
Haut(e) -- | Bas -- ° F
--% Risque de précip.
Hier
Haut(e) -- | Bas -- ° F
Precip. -- pouce
Pression 30.34 pouce
Visibilité 10.0 Miles terrestres
Nuages Ciel dégagé
Refroidissement éolien 17 ° F
Point de rosée 10 ° F
Humidité 47%
Précipitations 0.00 pouce
Profondeur de la couche neigeuse Non disponible.
6:47 AM 4:29 PM
Lune montante, 12% visible
METAR KTPH 030156Z AUTO 36012KT 10SM CLR M02/M12 A3025 RMK AO2 SLP272 T10221122
Pression 30.34 pouce
Visibilité 10.0 Miles terrestres
Nuages Ciel dégagé
Refroidissement éolien 17 ° F
Point de rosée 10 ° F
Humidité 47%
Précipitations 0.00 pouce
Profondeur de la couche neigeuse Non disponible.
6:47 AM 4:29 PM
Lune montante, 12% visible
METAR KTPH 030156Z AUTO 36012KT 10SM CLR M02/M12 A3025 RMK AO2 SLP272 T10221122

10-Day Weather Forecast

Almanac

Astronomie

Dec. 02, 2016 Lever Coucher
Temps réel
Crépuscule civil
Crépuscule nautique
Crépuscule astronomique
Lune
Durée de lumière visible
Longueur du jour
Tomorrow will be .
, % of the Moon is Illuminated

Extrêmes aujourd'hui

State Highs State Lows

Community

WunderPhotos

Upload Photos

1,955,396 Photos téléchargées !

WunderBlog® & News

Nearby

Qualité de l'air

  Qualité de l'air Indice de la qualité de l'air Polluant
Not available.

Épaisseur de neige

Station Depth Altitude

Activité sismique

Ville Distance Mag. Time & Date
Minimum magnitude displayed is 2.5.

Températures des eaux côtières

Lieu Température

Stations

Stations météo à proximité

Emplacement de la station Température Refroidissement éolien Point de rosée Humidité Vent Precip. Alt. Mise à jour Type
                   

Watches & Warnings

There are currently no watches in effect.